createdAt,value
2023-03-16T00:01:24.554Z,7.75
2023-03-16T00:03:51.668Z,8.05
2023-03-16T00:06:18.873Z,7.25
2023-03-16T00:08:46.768Z,8.02
2023-03-16T00:11:14.009Z,8.02
2023-03-16T00:13:42.838Z,10.13
2023-03-16T00:16:10.068Z,9.43
2023-03-16T00:18:41.175Z,7.63
2023-03-16T00:21:08.569Z,10.18
2023-03-16T00:23:36.260Z,10.10
2023-03-16T00:26:05.523Z,9.02
2023-03-16T00:28:35.235Z,6.82
2023-03-16T00:31:03.310Z,5.63
2023-03-16T00:33:30.556Z,6.60
2023-03-16T00:36:03.921Z,6.85
2023-03-16T00:38:35.696Z,6.68
2023-03-16T00:41:07.392Z,7.90
2023-03-16T00:43:41.840Z,7.25
2023-03-16T00:46:09.884Z,6.47
2023-03-16T00:48:37.468Z,5.57
2023-03-16T00:51:06.474Z,6.25
2023-03-16T00:53:34.336Z,8.38
2023-03-16T00:56:04.847Z,5.70
2023-03-16T00:58:35.797Z,5.70
2023-03-16T01:01:07.638Z,10.15
2023-03-16T01:03:35.334Z,6.95
2023-03-16T01:06:06.416Z,6.40
2023-03-16T01:08:33.553Z,5.45
2023-03-16T01:11:08.220Z,8.73
2023-03-16T01:13:35.375Z,5.95
2023-03-16T01:16:03.966Z,5.70
2023-03-16T01:18:34.229Z,7.90
2023-03-16T01:21:02.107Z,5.13
2023-03-16T01:23:32.489Z,5.32
2023-03-16T01:25:59.986Z,6.57
2023-03-16T01:28:28.241Z,7.22
2023-03-16T01:30:57.658Z,6.53
2023-03-16T01:33:25.906Z,6.30
2023-03-16T01:35:55.916Z,8.35
2023-03-16T01:38:23.222Z,7.15
2023-03-16T01:40:51.562Z,6.43
2023-03-16T01:43:24.087Z,6.88
2023-03-16T01:45:54.379Z,6.55
2023-03-16T01:48:24.783Z,6.72
2023-03-16T01:50:52.546Z,5.43
2023-03-16T01:53:21.413Z,7.03
2023-03-16T01:55:49.141Z,6.53
2023-03-16T01:58:16.467Z,9.10
2023-03-16T02:00:45.696Z,6.63
2023-03-16T02:03:15.598Z,6.63
2023-03-16T02:05:45.286Z,5.32
2023-03-16T02:08:12.585Z,7.35
2023-03-16T02:10:40.809Z,9.63
2023-03-16T02:13:08.195Z,7.95
2023-03-16T02:15:36.128Z,8.48
2023-03-16T02:18:03.764Z,7.68
2023-03-16T02:20:30.873Z,7.68
2023-03-16T02:22:58.861Z,6.45
2023-03-16T02:25:29.737Z,9.85
2023-03-16T02:28:03.204Z,7.18
2023-03-16T02:30:30.940Z,8.40
2023-03-16T02:32:58.200Z,7.82
2023-03-16T02:35:25.688Z,8.25
2023-03-16T02:37:53.085Z,7.65
2023-03-16T02:40:23.015Z,8.30
2023-03-16T02:42:59.889Z,9.02
2023-03-16T02:45:29.571Z,8.70
2023-03-16T02:47:58.974Z,14.43
2023-03-16T02:50:26.212Z,11.95
2023-03-16T02:52:54.085Z,13.40
2023-03-16T02:55:21.747Z,14.23
2023-03-16T02:57:49.409Z,11.13
2023-03-16T03:00:18.638Z,10.95
2023-03-16T03:02:46.416Z,14.98
2023-03-16T03:05:13.766Z,12.43
2023-03-16T03:07:40.992Z,10.95
2023-03-16T03:10:08.436Z,12.32
2023-03-16T03:12:35.863Z,13.32
2023-03-16T03:15:03.920Z,14.32
2023-03-16T03:17:31.256Z,13.15
2023-03-16T03:19:59.581Z,15.02
2023-03-16T03:22:27.459Z,14.15
2023-03-16T03:24:54.636Z,15.55
2023-03-16T03:27:22.586Z,14.38
2023-03-16T03:29:49.901Z,14.57
2023-03-16T03:32:17.220Z,16.10
2023-03-16T03:34:44.364Z,14.98
2023-03-16T03:37:11.551Z,14.65
2023-03-16T03:39:40.417Z,12.38
2023-03-16T03:42:07.758Z,14.27
2023-03-16T03:44:35.095Z,14.75
2023-03-16T03:47:02.293Z,13.38
2023-03-16T03:49:29.622Z,11.32
2023-03-16T03:51:59.063Z,14.95
2023-03-16T03:54:26.431Z,18.40
2023-03-16T03:56:53.697Z,12.90
2023-03-16T03:59:21.089Z,13.18
2023-03-16T04:01:49.028Z,12.75
2023-03-16T04:04:16.493Z,13.35
2023-03-16T04:06:43.640Z,14.70
2023-03-16T04:09:11.476Z,14.40
2023-03-16T04:11:38.781Z,13.27
2023-03-16T04:14:06.204Z,13.52
2023-03-16T04:16:34.113Z,14.23
2023-03-16T04:19:01.739Z,13.45
2023-03-16T04:21:29.161Z,13.88
2023-03-16T04:23:56.281Z,16.77
2023-03-16T04:26:25.675Z,15.32
2023-03-16T04:28:52.860Z,14.10
2023-03-16T04:31:20.117Z,12.23
2023-03-16T04:33:47.356Z,11.05
2023-03-16T04:36:15.008Z,15.52
2023-03-16T04:38:42.222Z,15.38
2023-03-16T04:41:11.422Z,13.82
2023-03-16T04:43:38.618Z,14.90
2023-03-16T04:46:06.695Z,12.75
2023-03-16T04:48:33.872Z,14.40
2023-03-16T04:51:01.537Z,12.60
2023-03-16T04:53:28.796Z,12.57
2023-03-16T04:55:55.942Z,11.85
2023-03-16T04:58:23.113Z,12.10
2023-03-16T05:00:52.219Z,11.75
2023-03-16T05:03:19.553Z,11.80
2023-03-16T05:05:47.260Z,10.55
2023-03-16T05:08:14.584Z,13.48
2023-03-16T05:10:41.862Z,11.70
2023-03-16T05:13:09.011Z,13.35
2023-03-16T05:15:36.208Z,10.80
2023-03-16T05:18:03.385Z,14.30
2023-03-16T05:20:31.422Z,14.77
2023-03-16T05:22:58.629Z,13.95
2023-03-16T05:25:25.753Z,14.88
2023-03-16T05:27:54.356Z,15.38
2023-03-16T05:30:21.594Z,16.40
2023-03-16T05:32:48.791Z,16.98
2023-03-16T05:35:15.999Z,15.95
2023-03-16T05:37:43.566Z,14.95
2023-03-16T05:40:17.125Z,15.77
2023-03-16T05:42:45.190Z,14.85
2023-03-16T05:45:13.428Z,15.32
2023-03-16T05:47:40.725Z,16.92
2023-03-16T05:50:11.605Z,13.77
2023-03-16T05:52:39.505Z,12.85
2023-03-16T05:55:07.419Z,15.52
2023-03-16T05:57:34.854Z,13.40
2023-03-16T06:00:11.223Z,14.68
2023-03-16T06:02:38.794Z,14.55
2023-03-16T06:05:07.379Z,15.80
2023-03-16T06:07:35.209Z,16.10
2023-03-16T06:10:02.857Z,16.23
2023-03-16T06:12:30.422Z,16.52
2023-03-16T06:14:57.621Z,13.13
2023-03-16T06:17:24.815Z,15.18
2023-03-16T06:19:52.065Z,14.55
2023-03-16T06:22:19.462Z,19.23
2023-03-16T06:24:46.692Z,13.57
2023-03-16T06:27:13.915Z,15.77
2023-03-16T06:29:41.305Z,13.98
2023-03-16T06:32:08.542Z,13.43
2023-03-16T06:34:38.131Z,14.52
2023-03-16T06:37:06.281Z,13.25
2023-03-16T06:39:33.468Z,15.70
2023-03-16T06:42:00.606Z,12.77
2023-03-16T06:44:27.891Z,14.68
2023-03-16T06:46:55.021Z,11.65
2023-03-16T06:49:22.211Z,14.15
2023-03-16T06:51:49.405Z,13.57
2023-03-16T06:54:17.213Z,12.82
2023-03-16T06:56:46.332Z,13.95
2023-03-16T06:59:13.601Z,15.95
2023-03-16T07:01:42.267Z,14.95
2023-03-16T07:04:09.550Z,15.98
2023-03-16T07:06:36.728Z,17.13
2023-03-16T07:09:05.064Z,15.60
2023-03-16T07:11:32.699Z,19.33
2023-03-16T07:14:00.013Z,20.40
2023-03-16T07:16:27.219Z,21.30
2023-03-16T07:18:55.081Z,17.33
2023-03-16T07:21:22.623Z,19.13
2023-03-16T07:23:50.057Z,17.80
2023-03-16T07:26:17.401Z,19.33
2023-03-16T07:28:44.990Z,15.02
2023-03-16T07:31:12.795Z,16.27
2023-03-16T07:33:40.183Z,18.13
2023-03-16T07:36:09.331Z,17.98
2023-03-16T07:38:36.821Z,15.27
2023-03-16T07:41:04.141Z,16.02
2023-03-16T07:43:31.368Z,14.70
2023-03-16T07:45:58.642Z,15.63
2023-03-16T07:48:26.138Z,16.20
2023-03-16T07:50:54.264Z,17.67
2023-03-16T07:53:21.401Z,16.83
2023-03-16T07:55:48.551Z,15.68
2023-03-16T07:58:15.836Z,17.73
2023-03-16T08:00:42.976Z,14.68
2023-03-16T08:03:11.132Z,14.88
2023-03-16T08:05:38.293Z,16.50
2023-03-16T08:08:05.558Z,15.38
2023-03-16T08:10:33.797Z,14.55
2023-03-16T08:13:01.158Z,15.73
2023-03-16T08:15:28.290Z,15.52
2023-03-16T08:17:55.637Z,13.80
2023-03-16T08:20:22.798Z,14.57
2023-03-16T08:22:50.756Z,15.73
2023-03-16T08:25:19.856Z,16.58
2023-03-16T08:27:47.698Z,16.25
2023-03-16T08:30:16.194Z,14.55
2023-03-16T08:32:43.599Z,13.77
2023-03-16T08:35:13.943Z,11.25
2023-03-16T08:37:41.931Z,10.43
2023-03-16T08:40:16.703Z,9.13
2023-03-16T08:42:44.920Z,10.43
2023-03-16T08:45:14.390Z,11.20
2023-03-16T08:47:41.788Z,15.10
2023-03-16T08:50:09.754Z,12.50
2023-03-16T08:52:37.349Z,10.95
2023-03-16T08:55:07.141Z,13.27
2023-03-16T08:57:34.630Z,10.93
2023-03-16T09:00:08.917Z,11.45
2023-03-16T09:02:38.529Z,13.10
2023-03-16T09:05:06.219Z,12.45
2023-03-16T09:07:35.608Z,11.13
2023-03-16T09:10:05.569Z,12.20
2023-03-16T09:12:33.148Z,9.93
2023-03-16T09:15:00.584Z,9.73
2023-03-16T09:17:28.569Z,8.70
2023-03-16T09:20:05.407Z,9.07
2023-03-16T09:22:38.769Z,10.13
2023-03-16T09:25:06.767Z,10.52
2023-03-16T09:27:35.066Z,8.75
2023-03-16T09:30:03.551Z,8.93
2023-03-16T09:32:30.881Z,9.90
2023-03-16T09:34:58.072Z,8.73
2023-03-16T09:37:26.052Z,9.70
2023-03-16T09:39:57.949Z,7.05
2023-03-16T09:42:27.681Z,12.50
2023-03-16T09:44:54.854Z,7.40
2023-03-16T09:47:27.329Z,8.70
2023-03-16T09:49:57.776Z,8.25
2023-03-16T09:52:30.203Z,7.10
2023-03-16T09:55:05.229Z,6.28
2023-03-16T09:57:35.560Z,7.80
2023-03-16T10:00:08.897Z,6.90
2023-03-16T10:02:45.552Z,7.05
2023-03-16T10:05:14.014Z,6.38
2023-03-16T10:07:59.591Z,7.60
2023-03-16T10:10:38.641Z,6.80
2023-03-16T10:13:09.394Z,6.75
2023-03-16T10:15:38.069Z,8.27
2023-03-16T10:18:13.338Z,8.30
2023-03-16T10:20:41.983Z,10.40
2023-03-16T10:23:15.819Z,7.18
2023-03-16T10:25:53.321Z,6.53
2023-03-16T10:28:27.391Z,7.63
2023-03-16T10:30:55.844Z,7.67
2023-03-16T10:33:24.194Z,7.35
2023-03-16T10:36:10.249Z,8.18
2023-03-16T10:38:40.470Z,8.05
2023-03-16T10:41:21.437Z,8.43
2023-03-16T10:43:52.896Z,8.95
2023-03-16T10:46:20.980Z,9.30
2023-03-16T10:48:54.861Z,8.77
2023-03-16T10:51:25.654Z,9.57
2023-03-16T10:53:52.996Z,9.85
2023-03-16T10:56:22.675Z,11.75
2023-03-16T10:58:50.151Z,11.68
2023-03-16T11:01:19.105Z,12.57
2023-03-16T11:03:51.095Z,12.30
2023-03-16T11:06:20.541Z,12.20
2023-03-16T11:08:48.666Z,10.73
2023-03-16T11:11:18.707Z,10.70
2023-03-16T11:13:47.200Z,11.05
2023-03-16T11:16:38.264Z,12.93
2023-03-16T11:19:05.390Z,11.35
2023-03-16T11:21:38.822Z,15.38
2023-03-16T11:24:07.063Z,11.90
2023-03-16T11:26:39.526Z,10.02
2023-03-16T11:29:09.834Z,12.00
2023-03-16T11:31:49.350Z,12.15
2023-03-16T11:34:17.940Z,11.02
2023-03-16T11:36:51.182Z,10.82
2023-03-16T11:39:31.196Z,10.45
2023-03-16T11:42:10.708Z,10.88
2023-03-16T11:44:59.373Z,12.13
2023-03-16T11:47:35.507Z,10.18
2023-03-16T11:50:17.398Z,9.77
2023-03-16T11:52:55.410Z,11.95
2023-03-16T11:55:41.011Z,8.35
2023-03-16T11:58:16.438Z,9.05
2023-03-16T12:01:02.354Z,9.15
2023-03-16T12:03:46.030Z,8.10
2023-03-16T12:06:24.284Z,9.00
2023-03-16T12:09:06.529Z,8.77
2023-03-16T12:11:33.658Z,8.55
2023-03-16T12:14:19.560Z,8.98
2023-03-16T12:16:54.835Z,10.10
2023-03-16T12:19:28.072Z,10.82
2023-03-16T12:22:10.346Z,7.10
2023-03-16T12:24:42.617Z,7.20
2023-03-16T12:27:14.192Z,8.18
2023-03-16T12:29:44.148Z,6.93
2023-03-16T12:32:22.589Z,6.93
2023-03-16T12:34:56.698Z,7.97
2023-03-16T12:37:33.072Z,7.77
2023-03-16T12:40:11.000Z,7.70
2023-03-16T12:42:57.078Z,10.45
2023-03-16T12:45:31.717Z,7.50
2023-03-16T12:48:07.922Z,6.25
2023-03-16T12:50:35.751Z,7.45
2023-03-16T12:53:02.939Z,6.82
2023-03-16T12:55:36.231Z,7.15
2023-03-16T12:58:06.505Z,6.53
2023-03-16T13:00:37.680Z,7.05
2023-03-16T13:03:06.475Z,5.50
2023-03-16T13:05:35.250Z,9.20
2023-03-16T13:08:10.643Z,6.93
2023-03-16T13:10:38.724Z,8.20
2023-03-16T13:13:11.412Z,4.65
2023-03-16T13:15:39.719Z,4.38
2023-03-16T13:18:09.946Z,5.22
2023-03-16T13:20:57.407Z,4.28
2023-03-16T13:23:28.879Z,4.97
2023-03-16T13:26:10.304Z,5.03
2023-03-16T13:28:38.797Z,5.05
2023-03-16T13:31:24.626Z,5.30
2023-03-16T13:33:54.745Z,7.35
2023-03-16T13:36:22.006Z,3.85
2023-03-16T13:39:04.323Z,4.05
2023-03-16T13:41:31.911Z,2.78
2023-03-16T13:43:59.076Z,3.80
2023-03-16T13:46:30.250Z,4.22
2023-03-16T13:49:00.827Z,3.67
2023-03-16T13:51:30.898Z,4.40
2023-03-16T13:53:58.700Z,4.95
2023-03-16T13:56:28.938Z,7.05
2023-03-16T13:58:57.863Z,3.20
2023-03-16T14:01:25.991Z,3.38
2023-03-16T14:03:53.727Z,3.00
2023-03-16T14:06:28.766Z,2.72
2023-03-16T14:09:01.501Z,2.63
2023-03-16T14:11:29.052Z,2.90
2023-03-16T14:13:57.261Z,3.13
2023-03-16T14:16:26.268Z,3.67
2023-03-16T14:19:04.515Z,2.83
2023-03-16T14:21:34.501Z,3.28
2023-03-16T14:24:04.608Z,3.17
2023-03-16T14:26:45.509Z,4.18
2023-03-16T14:29:19.492Z,4.07
2023-03-16T14:31:46.661Z,3.08
2023-03-16T14:34:28.976Z,2.70
2023-03-16T14:37:06.166Z,4.32
2023-03-16T14:39:33.837Z,2.67
2023-03-16T14:42:02.869Z,4.28
2023-03-16T14:44:32.345Z,3.40
2023-03-16T14:47:00.335Z,2.45
2023-03-16T14:49:28.039Z,2.95
2023-03-16T14:51:58.817Z,4.68
2023-03-16T14:54:26.719Z,3.47
2023-03-16T14:56:54.841Z,3.65
2023-03-16T14:59:22.333Z,4.22
2023-03-16T15:01:52.298Z,5.25
2023-03-16T15:04:25.648Z,2.50
2023-03-16T15:06:52.808Z,5.22
2023-03-16T15:09:39.549Z,2.97
2023-03-16T15:12:17.334Z,2.55
2023-03-16T15:15:03.323Z,3.20
2023-03-16T15:17:31.673Z,4.97
2023-03-16T15:19:58.858Z,5.93
2023-03-16T15:22:34.731Z,2.30
2023-03-16T15:25:04.381Z,4.28
2023-03-16T15:27:35.548Z,4.00
2023-03-16T15:30:02.704Z,3.05
2023-03-16T15:32:29.942Z,3.22
2023-03-16T15:34:57.674Z,6.28
2023-03-16T15:37:27.589Z,3.35
2023-03-16T15:39:54.880Z,4.32
2023-03-16T15:42:22.737Z,4.15
2023-03-16T15:44:49.895Z,4.05
2023-03-16T15:47:17.051Z,3.78
2023-03-16T15:49:48.228Z,2.92
2023-03-16T15:52:22.976Z,3.05
2023-03-16T15:54:50.158Z,3.47
2023-03-16T15:57:17.859Z,3.88
2023-03-16T15:59:46.615Z,3.95
2023-03-16T16:02:29.769Z,4.07
2023-03-16T16:04:57.463Z,4.90
2023-03-16T16:07:25.088Z,4.68
2023-03-16T16:09:52.727Z,4.15
2023-03-16T16:12:21.618Z,4.07
2023-03-16T16:14:48.976Z,3.72
2023-03-16T16:17:24.758Z,4.82
2023-03-16T16:19:54.280Z,5.00
2023-03-16T16:22:22.036Z,3.38
2023-03-16T16:24:49.167Z,3.88
2023-03-16T16:27:16.557Z,4.72
2023-03-16T16:32:32.635Z,3.33
2023-03-16T16:35:04.488Z,2.80
2023-03-16T16:37:32.070Z,3.55
2023-03-16T16:39:59.227Z,3.10
2023-03-16T16:42:26.555Z,3.58
2023-03-16T16:44:54.721Z,3.58
2023-03-16T16:47:22.429Z,3.75
2023-03-16T16:49:51.037Z,5.43
2023-03-16T16:52:18.634Z,6.43
2023-03-16T16:54:45.987Z,4.32
2023-03-16T16:57:18.372Z,3.88
2023-03-16T16:59:47.502Z,4.50
2023-03-16T17:02:23.557Z,4.10
2023-03-16T17:04:51.029Z,4.53
2023-03-16T17:07:18.356Z,5.93
2023-03-16T17:09:45.525Z,4.13
2023-03-16T17:12:21.831Z,4.05
2023-03-16T17:14:49.550Z,5.55
2023-03-16T17:17:17.801Z,6.32
2023-03-16T17:19:46.836Z,4.22
2023-03-16T17:22:28.534Z,4.65
2023-03-16T17:24:55.900Z,5.32
2023-03-16T17:27:25.610Z,7.80
2023-03-16T17:29:53.168Z,6.32
2023-03-16T17:32:24.891Z,3.75
2023-03-16T17:34:52.573Z,4.32
2023-03-16T17:37:21.074Z,3.78
2023-03-16T17:39:48.327Z,4.10
2023-03-16T17:42:18.025Z,3.75
2023-03-16T17:44:49.389Z,5.45
2023-03-16T17:47:17.521Z,5.60
2023-03-16T17:49:48.500Z,6.85
2023-03-16T17:52:18.293Z,7.40
2023-03-16T17:54:48.781Z,5.60
2023-03-16T17:57:20.838Z,6.38
2023-03-16T17:59:48.014Z,4.97
2023-03-16T18:02:35.472Z,5.93
2023-03-16T18:05:05.466Z,5.10
2023-03-16T18:07:32.666Z,4.72
2023-03-16T18:09:59.837Z,5.10
2023-03-16T18:12:27.313Z,5.93
2023-03-16T18:14:58.491Z,4.50
2023-03-16T18:17:33.464Z,4.80
2023-03-16T18:22:27.883Z,4.85
2023-03-16T18:24:56.212Z,7.88
2023-03-16T18:27:24.343Z,7.43
2023-03-16T18:29:51.513Z,5.30
2023-03-16T18:32:22.802Z,7.95
2023-03-16T18:34:50.926Z,4.82
2023-03-16T18:37:20.069Z,4.10
2023-03-16T18:39:48.153Z,3.88
2023-03-16T18:42:19.622Z,4.38
2023-03-16T18:44:46.748Z,5.20
2023-03-16T18:47:18.478Z,6.68
2023-03-16T18:49:49.188Z,6.47
2023-03-16T18:52:23.906Z,5.72
2023-03-16T18:54:52.855Z,4.53
2023-03-16T18:57:21.399Z,6.85
2023-03-16T18:59:49.033Z,8.02
2023-03-16T19:02:38.723Z,6.05
2023-03-16T19:05:08.338Z,6.45
2023-03-16T19:07:37.078Z,6.32
2023-03-16T19:10:14.333Z,6.60
2023-03-16T19:12:41.761Z,6.03
2023-03-16T19:15:35.692Z,6.00
2023-03-16T19:18:02.886Z,4.72
2023-03-16T19:20:31.891Z,6.53
2023-03-16T19:23:19.682Z,5.07
2023-03-16T19:25:47.244Z,6.32
2023-03-16T19:28:16.142Z,6.22
2023-03-16T19:30:43.862Z,4.43
2023-03-16T19:33:22.670Z,5.88
2023-03-16T19:35:52.239Z,5.78
2023-03-16T19:38:20.226Z,5.05
2023-03-16T19:40:49.066Z,6.00
2023-03-16T19:43:18.371Z,5.82
2023-03-16T19:45:46.196Z,6.88
2023-03-16T19:48:20.940Z,6.28
2023-03-16T19:50:49.260Z,4.35
2023-03-16T19:53:17.858Z,6.22
2023-03-16T19:55:47.017Z,7.60
2023-03-16T19:58:34.411Z,5.35
2023-03-16T20:01:02.978Z,8.35
2023-03-16T20:03:32.826Z,5.78
2023-03-16T20:06:00.004Z,5.55
2023-03-16T20:08:28.563Z,5.68
2023-03-16T20:11:04.920Z,5.95
2023-03-16T20:13:32.244Z,7.75
2023-03-16T20:15:59.428Z,6.65
2023-03-16T20:18:28.715Z,8.88
2023-03-16T20:20:55.983Z,5.97
2023-03-16T20:23:27.998Z,5.32
2023-03-16T20:25:56.520Z,6.10
2023-03-16T20:28:25.633Z,6.80
2023-03-16T20:30:53.323Z,8.13
2023-03-16T20:33:25.417Z,8.15
2023-03-16T20:35:56.289Z,9.50
2023-03-16T20:38:23.768Z,7.47
2023-03-16T20:40:52.633Z,7.57
2023-03-16T20:43:23.753Z,7.78
2023-03-16T20:45:52.814Z,11.60
2023-03-16T20:48:20.273Z,12.05
2023-03-16T20:50:48.191Z,9.15
2023-03-16T20:53:15.601Z,9.52
2023-03-16T20:55:43.209Z,8.60
2023-03-16T20:58:18.361Z,10.48
2023-03-16T21:00:45.807Z,8.95
2023-03-16T21:03:23.721Z,8.85
2023-03-16T21:05:52.222Z,8.52
2023-03-16T21:08:19.976Z,7.10
2023-03-16T21:10:48.241Z,8.57
2023-03-16T21:13:20.703Z,7.53
2023-03-16T21:15:50.034Z,8.38
2023-03-16T21:18:19.804Z,9.40
2023-03-16T21:20:47.959Z,7.63
2023-03-16T21:23:17.276Z,6.35
2023-03-16T21:25:45.882Z,7.05
2023-03-16T21:28:13.593Z,7.57
2023-03-16T21:30:43.611Z,8.77
2023-03-16T21:33:18.009Z,8.63
2023-03-16T21:35:45.728Z,8.75
2023-03-16T21:38:14.395Z,7.35
2023-03-16T21:40:41.834Z,8.32
2023-03-16T21:43:11.736Z,6.72
2023-03-16T21:45:39.297Z,7.07
2023-03-16T21:48:07.849Z,7.53
2023-03-16T21:50:36.775Z,9.77
2023-03-16T21:53:04.435Z,9.15
2023-03-16T21:55:32.095Z,7.80
2023-03-16T21:57:59.973Z,6.80
2023-03-16T22:00:34.418Z,7.35
2023-03-16T22:03:03.386Z,7.80
2023-03-16T22:05:35.760Z,8.13
2023-03-16T22:08:08.353Z,9.25
2023-03-16T22:10:35.491Z,8.90
2023-03-16T22:13:02.838Z,7.13
2023-03-16T22:15:30.205Z,7.28
2023-03-16T22:17:57.676Z,7.97
2023-03-16T22:20:27.225Z,8.73
2023-03-16T22:22:57.590Z,7.95
2023-03-16T22:25:26.627Z,8.50
2023-03-16T22:27:53.886Z,11.57
2023-03-16T22:30:25.536Z,8.85
2023-03-16T22:32:53.908Z,7.28
2023-03-16T22:35:27.394Z,7.63
2023-03-16T22:37:55.570Z,8.40
2023-03-16T22:40:25.776Z,7.45
2023-03-16T22:42:52.995Z,7.30
2023-03-16T22:45:24.550Z,6.25
2023-03-16T22:47:52.192Z,7.03
2023-03-16T22:50:20.557Z,5.70
2023-03-16T22:52:49.257Z,7.95
2023-03-16T22:55:22.880Z,8.60
2023-03-16T22:57:51.479Z,8.07
2023-03-16T23:00:21.424Z,6.18
2023-03-16T23:02:50.694Z,7.63
2023-03-16T23:05:19.267Z,7.72
2023-03-16T23:07:46.668Z,8.20
2023-03-16T23:10:17.969Z,10.40
2023-03-16T23:12:45.518Z,7.50
2023-03-16T23:15:20.799Z,7.35
2023-03-16T23:17:48.755Z,7.25
2023-03-16T23:20:20.606Z,6.32
2023-03-16T23:22:48.208Z,5.88
2023-03-16T23:25:16.060Z,6.50
2023-03-16T23:27:43.598Z,8.60
2023-03-16T23:30:24.111Z,5.75
2023-03-16T23:32:52.236Z,6.13
2023-03-16T23:35:24.404Z,6.38
2023-03-16T23:37:52.051Z,9.70
2023-03-16T23:40:20.705Z,6.53
2023-03-16T23:42:48.158Z,9.02
2023-03-16T23:45:27.098Z,7.43
2023-03-16T23:47:55.342Z,8.75
2023-03-16T23:50:25.122Z,9.43
2023-03-16T23:52:52.423Z,9.77
2023-03-16T23:55:20.012Z,6.13
2023-03-16T23:57:47.287Z,9.50
